Flight Information

DEPARTURE
SPOKANE, WA
Elevation:
2385
Runways:
3/21 - 11002x150 - ASPH-CONC-E
8/26 - 8199x150 - ASPH-G
ATIS:
124.325
Clearance Delivery:
127.55
Ground:
121.9
Tower:
SPOKANE TOWER 118.3
DESTINATION
,
Elevation:
TPA:
1000 (est.)


6489.1 NM69° True-19° Var49° HDG

Flight Plan:
(click to file on line)

1. Type
2. Aircraft Identification
3. Aircraft Type / Special Equipment
4. True Airspeed
kts
5. Departure Airport
(ICAO code)
6. Arriving Airport
(ICAO code)
7. Cruising Altitude
ft
8. Alternate Airport
(ICAO code)
9. Route of Flight
10. Remarks


00:00:00 Departure ATIS: Destination ATIS:

Clearance Limit:
Route:
Altitude: Expect in minutes
Frequency:
Transponder: (7500 Hijack / 7600 Lost Comms / 7700 Emergency)


KGEG 110253Z 35009KT 10SM FEW065 SCT080 04/M09 A3006 RMK AO2 SLP194 VIRGA T00391094 53024
Time: 2021-04-11T02:53:00Z
1618110488
Winds: 350 @ 9 kts
Visibility: 10.0 sm
Clouds (AGL): FEW 6500
SCT 8000
Temperature: 3.9 C
Dew Point: -9.4 C
Pressure: 30.059055 in Hgbr


Notes:

Data extracted from FAA Digital Chart Supplement. Effective: 0901Z Thursday, Feb 25, 2021 to 0901Z Thursday, APR 22, 2021
Current ATIS data is provided courtisy of PilotEdge.